Time;durP1;ratioP1;P1;durP2;ratioP2;P2;SDS_P1;SDS_P2;PMS_P1;PMS_P2;Temp;Humidity;BMP_temperature;BMP_pressure;BME280_temperature;BME280_humidity;BME280_pressure;Samples;Min_cycle;Max_cycle;Signal;HPM_P1;HPM_P2
2021/01/07 00:01:50;;;;;;;21.83;16.10;;;2.70;71.40;;;;;;5047229;28;20482;-73
2021/01/07 00:04:16;;;;;;;16.92;14.75;;;2.60;71.20;;;;;;5045494;28;20033;-74
2021/01/07 00:06:42;;;;;;;18.67;15.68;;;2.60;71.20;;;;;;5047439;28;20509;-74
2021/01/07 00:09:08;;;;;;;20.35;16.23;;;2.60;71.30;;;;;;5046455;28;20036;-75
2021/01/07 00:11:34;;;;;;;16.95;13.85;;;2.60;71.20;;;;;;5045818;28;20033;-76
2021/01/07 00:14:00;;;;;;;17.50;14.52;;;2.50;71.10;;;;;;5047105;28;20048;-75
2021/01/07 00:16:26;;;;;;;15.88;13.77;;;2.50;71.10;;;;;;5045974;28;20025;-75
2021/01/07 00:18:52;;;;;;;18.25;14.57;;;2.50;71.10;;;;;;5045269;28;20037;-74
2021/01/07 00:21:18;;;;;;;20.55;15.38;;;2.50;71.20;;;;;;5046733;28;20032;-75
2021/01/07 00:23:44;;;;;;;17.90;14.88;;;2.50;71.20;;;;;;5046604;28;20052;-76
2021/01/07 00:26:10;;;;;;;18.70;14.65;;;2.40;71.00;;;;;;5028877;28;20142;-76
2021/01/07 00:28:36;;;;;;;20.23;14.98;;;2.40;71.10;;;;;;5046844;28;20461;-75
2021/01/07 00:31:02;;;;;;;17.33;14.90;;;2.40;71.10;;;;;;5045119;28;20033;-77
2021/01/07 00:33:28;;;;;;;19.88;14.57;;;2.30;70.90;;;;;;5046785;28;20029;-76
2021/01/07 00:35:54;;;;;;;19.75;15.98;;;2.30;70.90;;;;;;5046756;28;20086;-74
2021/01/07 00:38:19;;;;;;;18.30;15.70;;;2.30;70.90;;;;;;5046490;28;20032;-76
2021/01/07 00:40:45;;;;;;;17.73;15.73;;;2.30;71.00;;;;;;5044728;28;20116;-73
2021/01/07 00:43:11;;;;;;;16.98;14.27;;;2.30;71.00;;;;;;5046634;28;20123;-75
2021/01/07 00:45:37;;;;;;;15.88;14.10;;;2.20;70.80;;;;;;5046189;28;20223;-77
2021/01/07 00:48:04;;;;;;;17.35;14.55;;;2.20;70.80;;;;;;5046618;28;20275;-74
2021/01/07 00:50:30;;;;;;;19.70;15.45;;;2.20;70.90;;;;;;5028596;28;20099;-75
2021/01/07 00:52:57;;;;;;;28.83;13.98;;;2.20;70.90;;;;;;5044534;28;20037;-75
2021/01/07 00:55:24;;;;;;;16.83;13.57;;;2.10;70.70;;;;;;5044812;28;20025;-74
2021/01/07 00:57:56;;;;;;;19.13;15.60;;;2.10;70.70;;;;;;5045371;28;20529;-75
2021/01/07 01:00:23;;;;;;;18.52;14.13;;;2.10;70.70;;;;;;5028047;28;20071;-74
2021/01/07 01:02:50;;;;;;;23.55;14.15;;;2.00;70.60;;;;;;5038794;28;20030;-75
2021/01/07 01:05:16;;;;;;;16.25;13.02;;;2.00;70.60;;;;;;5046356;28;20033;-73
2021/01/07 01:07:43;;;;;;;19.23;14.93;;;2.00;70.60;;;;;;5045601;28;20029;-75
2021/01/07 01:10:10;;;;;;;17.90;12.98;;;1.90;70.50;;;;;;5045377;28;20041;-75
2021/01/07 01:12:38;;;;;;;17.25;14.80;;;1.90;70.50;;;;;;5046198;28;20373;-74
2021/01/07 01:15:08;;;;;;;15.80;14.10;;;1.90;70.50;;;;;;5044234;28;20428;-74
2021/01/07 01:17:35;;;;;;;19.58;15.00;;;1.90;70.50;;;;;;5045390;28;20463;-74
2021/01/07 01:20:01;;;;;;;19.17;14.93;;;1.90;70.60;;;;;;5044311;28;20112;-74
2021/01/07 01:22:34;;;;;;;15.63;13.95;;;1.90;70.50;;;;;;5045344;28;20037;-74
2021/01/07 01:25:01;;;;;;;23.60;14.93;;;1.80;70.30;;;;;;5045726;28;20037;-75
2021/01/07 01:27:28;;;;;;;16.45;14.68;;;1.80;70.40;;;;;;5045676;28;20160;-74
2021/01/07 01:29:54;;;;;;;16.05;13.13;;;1.80;70.40;;;;;;5044442;28;20130;-74
2021/01/07 01:32:21;;;;;;;20.02;14.95;;;1.70;70.20;;;;;;5045901;28;20349;-73
2021/01/07 01:34:47;;;;;;;20.85;14.00;;;1.70;70.20;;;;;;5045746;28;20040;-75
2021/01/07 01:37:13;;;;;;;19.00;15.40;;;1.70;70.30;;;;;;5045502;28;20400;-75
2021/01/07 01:39:39;;;;;;;19.05;14.88;;;1.70;70.30;;;;;;5044165;28;20029;-74
2021/01/07 01:42:05;;;;;;;19.50;14.65;;;1.70;70.30;;;;;;5043579;28;20021;-74
2021/01/07 01:44:31;;;;;;;18.35;15.65;;;1.70;70.30;;;;;;5045365;28;20484;-74
2021/01/07 01:46:57;;;;;;;17.38;15.50;;;1.60;70.20;;;;;;5045894;28;20037;-74
2021/01/07 01:49:24;;;;;;;21.23;15.00;;;1.60;70.20;;;;;;5043970;28;20422;-75
2021/01/07 01:51:50;;;;;;;19.35;14.95;;;1.60;70.20;;;;;;5027612;28;20129;-75
2021/01/07 01:54:16;;;;;;;19.90;15.00;;;1.60;70.20;;;;;;5027317;28;20108;-73
2021/01/07 01:56:46;;;;;;;17.30;15.15;;;1.50;70.10;;;;;;5044112;28;20606;-74
2021/01/07 01:59:13;;;;;;;19.40;14.60;;;1.50;70.10;;;;;;5027213;28;20032;-74
2021/01/07 02:01:40;;;;;;;16.17;14.43;;;1.50;70.10;;;;;;5027161;28;20472;-73
2021/01/07 02:04:06;;;;;;;19.83;13.90;;;1.50;70.20;;;;;;5043448;28;20098;-74
2021/01/07 02:06:35;;;;;;;19.30;15.02;;;1.50;70.20;;;;;;5043668;28;20080;-74
2021/01/07 02:09:06;;;;;;;17.30;14.80;;;1.50;70.20;;;;;;5027458;28;20048;-75
2021/01/07 02:11:33;;;;;;;18.25;14.20;;;1.40;70.50;;;;;;5044758;28;20247;-76
2021/01/07 02:14:00;;;;;;;18.35;14.07;;;1.40;70.00;;;;;;5045010;28;20028;-76
2021/01/07 02:16:26;;;;;;;15.15;13.50;;;1.40;70.00;;;;;;5045026;28;20211;-76
2021/01/07 02:18:55;;;;;;;20.00;14.63;;;1.40;70.00;;;;;;5044234;28;20025;-75
2021/01/07 02:21:21;;;;;;;19.02;16.23;;;1.40;70.00;;;;;;5043981;28;20032;-75
2021/01/07 02:23:51;;;;;;;20.38;15.00;;;1.30;69.90;;;;;;5044456;28;20099;-77
2021/01/07 02:26:19;;;;;;;18.98;14.23;;;1.30;70.00;;;;;;5044857;28;20037;-75
2021/01/07 02:28:46;;;;;;;19.33;14.93;;;1.30;70.00;;;;;;5044600;28;20419;-75
2021/01/07 02:31:12;;;;;;;18.02;14.38;;;1.30;70.10;;;;;;5043043;28;20559;-74
2021/01/07 02:33:38;;;;;;;21.38;15.20;;;1.30;70.10;;;;;;5046207;28;20029;-76
2021/01/07 02:36:05;;;;;;;18.92;15.35;;;1.30;70.20;;;;;;5045686;28;20037;-73
2021/01/07 02:38:31;;;;;;;20.50;15.27;;;1.30;70.20;;;;;;5044762;28;20033;-75
2021/01/07 02:40:57;;;;;;;18.20;15.50;;;1.20;70.00;;;;;;5043999;28;20047;-75
2021/01/07 02:43:23;;;;;;;20.17;15.13;;;1.30;70.30;;;;;;5027602;28;20108;-74
2021/01/07 02:45:49;;;;;;;21.42;14.43;;;1.20;70.10;;;;;;5044721;28;20029;-75
2021/01/07 02:48:14;;;;;;;22.85;15.68;;;1.20;70.10;;;;;;5048732;28;20095;-75
2021/01/07 02:50:40;;;;;;;19.42;15.60;;;1.20;70.20;;;;;;5048247;28;20053;-74
2021/01/07 02:53:06;;;;;;;23.83;15.85;;;1.20;70.20;;;;;;5049212;28;20107;-74
2021/01/07 02:55:32;;;;;;;17.77;15.32;;;1.20;70.20;;;;;;5049183;28;20029;-75
2021/01/07 02:57:58;;;;;;;19.23;14.77;;;1.10;70.00;;;;;;5049234;28;20033;-74
2021/01/07 03:00:25;;;;;;;18.40;14.90;;;1.20;70.30;;;;;;5047282;28;20424;-75
2021/01/07 03:02:51;;;;;;;18.60;14.50;;;1.10;70.10;;;;;;5049178;28;20033;-75
2021/01/07 03:05:17;;;;;;;19.25;14.70;;;1.10;70.10;;;;;;5049166;28;20043;-75
2021/01/07 03:07:43;;;;;;;16.75;14.63;;;1.10;70.10;;;;;;5049096;28;20125;-75
2021/01/07 03:10:10;;;;;;;17.80;14.63;;;1.10;70.10;;;;;;5047874;28;20067;-75
2021/01/07 03:12:36;;;;;;;21.55;14.73;;;1.10;70.10;;;;;;5048655;28;20025;-74
2021/01/07 03:15:04;;;;;;;21.45;15.82;;;1.00;70.00;;;;;;5047719;28;20392;-74
2021/01/07 03:17:30;;;;;;;19.27;14.85;;;1.00;70.00;;;;;;5048897;28;20523;-74
2021/01/07 03:19:56;;;;;;;19.80;14.85;;;1.00;70.00;;;;;;5048989;28;20027;-74
2021/01/07 03:22:21;;;;;;;21.45;14.90;;;1.00;70.10;;;;;;5048598;28;20108;-74
2021/01/07 03:24:47;;;;;;;19.70;14.15;;;1.00;70.10;;;;;;5049157;28;20076;-75
2021/01/07 03:27:13;;;;;;;21.02;14.38;;;0.90;70.00;;;;;;5048881;28;20513;-75
2021/01/07 03:29:39;;;;;;;22.63;16.00;;;0.90;70.10;;;;;;5048482;28;20213;-75
2021/01/07 03:32:05;;;;;;;16.63;14.30;;;0.90;70.10;;;;;;5049182;28;20075;-75
2021/01/07 03:34:31;;;;;;;26.48;16.27;;;0.90;70.10;;;;;;5047228;28;20154;-75
2021/01/07 03:36:57;;;;;;;20.15;14.43;;;0.90;70.10;;;;;;5048976;28;20112;-75
2021/01/07 03:39:23;;;;;;;18.55;14.48;;;0.80;69.90;;;;;;5048919;28;20021;-76
2021/01/07 03:41:49;;;;;;;20.05;15.13;;;0.80;70.00;;;;;;5048373;28;20061;-77
2021/01/07 03:44:15;;;;;;;21.90;15.35;;;0.80;70.00;;;;;;5048007;28;20048;-74
2021/01/07 03:46:41;;;;;;;19.40;15.23;;;0.80;70.00;;;;;;5048369;28;20033;-75
2021/01/07 03:49:07;;;;;;;21.48;14.93;;;0.80;70.00;;;;;;5047138;28;20033;-74
2021/01/07 03:51:33;;;;;;;20.77;16.00;;;0.70;69.80;;;;;;5047268;28;20524;-74
2021/01/07 03:54:00;;;;;;;19.88;15.40;;;0.80;70.00;;;;;;5047429;28;20079;-74
2021/01/07 03:56:26;;;;;;;19.17;15.65;;;0.70;69.90;;;;;;5047438;28;20040;-75
2021/01/07 03:58:52;;;;;;;24.38;15.00;;;0.70;69.90;;;;;;5046953;28;20067;-74
2021/01/07 04:01:18;;;;;;;16.67;13.93;;;0.60;69.70;;;;;;5049043;28;20079;-74
2021/01/07 04:03:44;;;;;;;19.33;15.50;;;0.70;70.00;;;;;;5034193;28;20025;-75
2021/01/07 04:06:10;;;;;;;19.17;13.85;;;0.60;69.80;;;;;;5050782;28;20033;-74
2021/01/07 04:08:36;;;;;;;20.15;15.18;;;0.60;69.80;;;;;;5050695;28;20048;-74
2021/01/07 04:11:03;;;;;;;18.33;14.55;;;0.60;69.80;;;;;;5034114;28;20040;-74
2021/01/07 04:13:29;;;;;;;19.92;13.65;;;0.60;69.80;;;;;;5051846;28;20032;-75
2021/01/07 04:15:56;;;;;;;18.23;14.65;;;0.50;69.70;;;;;;5051526;28;20039;-74
2021/01/07 04:18:21;;;;;;;20.65;15.45;;;0.60;69.90;;;;;;5052176;28;20104;-75
2021/01/07 04:20:47;;;;;;;17.42;13.63;;;0.50;69.70;;;;;;5052151;28;20029;-75
2021/01/07 04:23:13;;;;;;;19.30;15.82;;;0.50;69.70;;;;;;5052158;28;20029;-75
2021/01/07 04:25:39;;;;;;;20.45;15.75;;;0.50;69.80;;;;;;5051695;28;20116;-74
2021/01/07 04:28:05;;;;;;;19.65;14.73;;;0.50;69.80;;;;;;5051833;28;20107;-75
2021/01/07 04:30:31;;;;;;;19.60;14.60;;;0.40;69.60;;;;;;5051610;28;20041;-75
2021/01/07 04:32:57;;;;;;;20.48;14.80;;;0.40;69.60;;;;;;5051685;28;20385;-75
2021/01/07 04:35:23;;;;;;;23.73;14.77;;;0.40;69.60;;;;;;5051696;28;20039;-75
2021/01/07 04:37:49;;;;;;;15.88;13.38;;;0.40;69.70;;;;;;5051631;28;20025;-74
2021/01/07 04:40:15;;;;;;;19.00;13.98;;;0.40;69.70;;;;;;5051373;28;20108;-75
2021/01/07 04:42:42;;;;;;;19.08;14.70;;;0.30;69.50;;;;;;5051652;28;20025;-75
2021/01/07 04:45:08;;;;;;;19.77;13.77;;;0.30;69.60;;;;;;5050992;28;20501;-74
2021/01/07 04:47:36;;;;;;;18.95;14.13;;;0.30;69.60;;;;;;5050489;28;20446;-74
2021/01/07 04:50:02;;;;;;;19.40;14.98;;;0.30;69.60;;;;;;5051383;28;20044;-75
2021/01/07 04:52:28;;;;;;;19.02;13.85;;;0.30;69.60;;;;;;5033154;28;20084;-75
2021/01/07 04:54:54;;;;;;;17.10;14.45;;;0.30;69.60;;;;;;5050909;28;20361;-74
2021/01/07 04:57:21;;;;;;;20.42;15.25;;;0.30;69.60;;;;;;5033277;28;20025;-75
2021/01/07 04:59:47;;;;;;;20.90;15.13;;;0.30;69.70;;;;;;5051188;28;20033;-74
2021/01/07 05:02:14;;;;;;;17.08;14.85;;;0.30;69.60;;;;;;5049614;28;20040;-74
2021/01/07 05:04:51;;;;;;;18.95;15.27;;;0.20;69.50;;;;;;5050623;28;20436;-74
2021/01/07 05:07:19;;;;;;;18.33;14.50;;;0.20;69.50;;;;;;5049475;28;20488;-75
2021/01/07 05:09:46;;;;;;;18.35;13.68;;;0.20;69.50;;;;;;5050848;28;20044;-74
2021/01/07 05:12:15;;;;;;;18.83;14.77;;;0.20;69.50;;;;;;5048322;28;20031;-74
2021/01/07 05:14:45;;;;;;;19.73;15.05;;;0.20;69.50;;;;;;5049287;28;20040;-74
2021/01/07 05:17:12;;;;;;;23.17;15.55;;;0.20;69.50;;;;;;5050036;28;20480;-76
2021/01/07 05:19:38;;;;;;;24.27;15.80;;;0.20;69.50;;;;;;5050652;28;20032;-74
2021/01/07 05:22:04;;;;;;;18.25;15.35;;;0.20;69.50;;;;;;5051136;28;20036;-75
2021/01/07 05:24:32;;;;;;;22.15;15.30;;;0.20;69.50;;;;;;5050368;28;20029;-74
2021/01/07 05:27:09;;;;;;;21.85;15.85;;;0.20;69.50;;;;;;5050454;28;20032;-76
2021/01/07 05:29:38;;;;;;;17.45;14.57;;;0.10;69.30;;;;;;5050503;28;20127;-74
2021/01/07 05:32:05;;;;;;;18.58;14.05;;;0.10;69.40;;;;;;5050172;28;20056;-74
2021/01/07 05:34:31;;;;;;;22.95;15.77;;;0.10;69.40;;;;;;5050279;28;20041;-75
2021/01/07 05:36:59;;;;;;;24.88;15.80;;;0.10;69.40;;;;;;5049741;28;20025;-75
2021/01/07 05:39:34;;;;;;;21.13;16.17;;;0.00;69.20;;;;;;5050185;28;20035;-74
2021/01/07 05:42:01;;;;;;;17.83;14.00;;;0.10;69.40;;;;;;5048493;28;20035;-74
2021/01/07 05:44:31;;;;;;;19.58;15.50;;;0.00;69.30;;;;;;5050146;28;20033;-73
2021/01/07 05:46:58;;;;;;;19.67;15.82;;;0.00;69.30;;;;;;5047468;28;20075;-74
2021/01/07 05:49:45;;;;;;;23.23;16.63;;;0.00;69.30;;;;;;5026591;28;20385;-74
2021/01/07 05:52:11;;;;;;;22.00;15.98;;;0.00;69.30;;;;;;5026729;28;20037;-74
2021/01/07 05:54:39;;;;;;;22.30;16.20;;;0.00;69.30;;;;;;5027623;28;20045;-75
2021/01/07 05:57:10;;;;;;;21.23;15.73;;;0.00;69.30;;;;;;5026380;28;20105;-74
2021/01/07 05:59:38;;;;;;;23.67;15.95;;;0.00;69.30;;;;;;5044662;28;20360;-74
2021/01/07 06:02:04;;;;;;;20.00;15.77;;;-0.10;69.10;;;;;;5043326;28;20064;-74
2021/01/07 06:04:32;;;;;;;20.05;15.20;;;-0.10;69.10;;;;;;5043489;28;20596;-75
2021/01/07 06:06:59;;;;;;;23.98;16.20;;;-0.10;69.20;;;;;;5044712;28;20079;-74
2021/01/07 06:09:29;;;;;;;23.33;16.20;;;-0.10;69.10;;;;;;5044573;28;20433;-74
2021/01/07 06:12:00;;;;;;;21.20;15.63;;;-0.10;69.10;;;;;;5044682;28;20039;-74
2021/01/07 06:14:27;;;;;;;24.85;17.52;;;-0.20;69.00;;;;;;5044484;28;20033;-76
2021/01/07 06:16:56;;;;;;;19.38;16.65;;;-0.10;69.10;;;;;;5042540;28;20032;-74
2021/01/07 06:19:29;;;;;;;21.80;16.73;;;-0.20;68.90;;;;;;5042858;28;20029;-76
2021/01/07 06:21:59;;;;;;;22.67;17.80;;;-0.20;69.00;;;;;;5026607;28;20462;-74
2021/01/07 06:24:26;;;;;;;22.23;17.27;;;-0.20;69.00;;;;;;5043984;28;20033;-73
2021/01/07 06:26:52;;;;;;;23.65;17.30;;;-0.20;69.00;;;;;;5044243;28;20044;-73
2021/01/07 06:29:18;;;;;;;24.30;17.35;;;-0.20;69.00;;;;;;5042623;28;20067;-74
2021/01/07 06:31:54;;;;;;;24.27;17.92;;;-0.20;69.00;;;;;;5043626;28;20060;-73
2021/01/07 06:34:25;;;;;;;22.42;16.90;;;-0.20;69.00;;;;;;5044774;28;20389;-73
2021/01/07 06:36:53;;;;;;;23.90;17.67;;;-0.20;69.00;;;;;;5044142;28;20478;-73
2021/01/07 06:39:22;;;;;;;21.95;17.00;;;-0.30;68.90;;;;;;5042765;28;20039;-74
2021/01/07 06:41:53;;;;;;;21.77;16.83;;;-0.30;68.90;;;;;;5041899;28;20071;-74
2021/01/07 06:44:20;;;;;;;20.77;16.98;;;-0.30;68.90;;;;;;5043998;28;20502;-73
2021/01/07 06:46:49;;;;;;;27.70;18.70;;;-0.30;68.90;;;;;;5043347;28;20025;-74
2021/01/07 06:49:19;;;;;;;26.75;17.45;;;-0.30;68.90;;;;;;5042437;28;20151;-75
2021/01/07 06:52:01;;;;;;;28.80;18.40;;;-0.30;68.90;;;;;;5044200;28;20037;-74
2021/01/07 06:54:51;;;;;;;24.65;17.70;;;-0.40;68.70;;;;;;5044210;28;20475;-75
2021/01/07 06:57:17;;;;;;;24.98;17.33;;;-0.40;68.80;;;;;;5042409;28;20033;-74
2021/01/07 07:00:00;;;;;;;24.25;17.27;;;-0.40;68.70;;;;;;5043602;28;20468;-74
2021/01/07 07:02:28;;;;;;;23.67;16.98;;;-0.40;68.80;;;;;;5043918;28;20539;-73
2021/01/07 07:05:09;;;;;;;23.15;17.02;;;-0.40;68.80;;;;;;5041600;28;20021;-76
2021/01/07 07:07:38;;;;;;;24.92;17.83;;;-0.40;68.80;;;;;;5041904;28;20059;-73
2021/01/07 07:10:19;;;;;;;23.58;17.40;;;-0.40;68.80;;;;;;5043409;28;20550;-71
2021/01/07 07:12:54;;;;;;;25.58;18.38;;;-0.40;68.80;;;;;;5042027;28;20037;-74
2021/01/07 07:15:25;;;;;;;24.05;18.33;;;-0.50;68.60;;;;;;5042983;28;20107;-74
2021/01/07 07:17:56;;;;;;;19.95;16.15;;;-0.40;68.90;;;;;;5042489;28;20033;-74
2021/01/07 07:20:24;;;;;;;25.45;18.17;;;-0.40;69.00;;;;;;5041338;28;20546;-74
2021/01/07 07:22:51;;;;;;;23.70;17.40;;;-0.30;69.10;;;;;;5041995;28;20025;-73
2021/01/07 07:25:25;;;;;;;23.10;17.85;;;-0.30;69.00;;;;;;5025337;28;20036;-72
2021/01/07 07:27:52;;;;;;;23.25;17.42;;;-0.20;69.00;;;;;;5025610;28;20029;-74
2021/01/07 07:30:24;;;;;;;24.17;17.73;;;-0.20;68.90;;;;;;5041844;28;20053;-74
2021/01/07 07:32:50;;;;;;;21.15;17.25;;;-0.20;68.80;;;;;;5041134;28;20033;-75
2021/01/07 07:35:42;;;;;;;27.92;17.75;;;-0.20;68.70;;;;;;5040150;28;20029;-72
2021/01/07 07:38:11;;;;;;;21.95;17.77;;;-0.20;68.80;;;;;;5045304;28;20040;-74
2021/01/07 07:40:41;;;;;;;24.42;17.92;;;-0.20;68.80;;;;;;5028321;28;20033;-72
2021/01/07 07:43:08;;;;;;;26.42;17.40;;;-0.30;68.60;;;;;;5047020;28;20468;-73
2021/01/07 07:45:40;;;;;;;24.80;16.83;;;-0.20;68.80;;;;;;5047129;28;20387;-74
2021/01/07 07:48:08;;;;;;;27.00;17.42;;;-0.20;68.90;;;;;;5046559;28;20051;-75
2021/01/07 07:50:34;;;;;;;30.00;18.40;;;-0.30;68.70;;;;;;5043889;28;20446;-71
2021/01/07 07:53:05;;;;;;;23.42;17.23;;;-0.30;68.80;;;;;;5044407;28;20056;-72
2021/01/07 07:55:36;;;;;;;25.05;18.27;;;-0.30;68.80;;;;;;5042927;28;20037;-72
2021/01/07 07:58:09;;;;;;;27.70;18.92;;;-0.30;68.80;;;;;;5047369;28;20036;-72
2021/01/07 08:00:35;;;;;;;27.85;20.52;;;-0.30;68.80;;;;;;5046666;28;20033;-72
2021/01/07 08:03:02;;;;;;;27.25;18.83;;;-0.30;68.80;;;;;;5045118;28;20104;-73
2021/01/07 08:05:30;;;;;;;29.17;19.77;;;-0.20;69.00;;;;;;5047303;28;20499;-73
2021/01/07 08:07:57;;;;;;;29.23;19.55;;;-0.30;68.80;;;;;;5047157;28;20155;-73
2021/01/07 08:10:24;;;;;;;27.15;18.73;;;-0.30;68.80;;;;;;5044703;28;20106;-72
2021/01/07 08:12:51;;;;;;;28.73;18.90;;;-0.20;69.00;;;;;;5045081;28;20021;-73
2021/01/07 08:15:30;;;;;;;26.15;19.70;;;-0.20;69.00;;;;;;5045547;28;20037;-72
2021/01/07 08:18:18;;;;;;;28.15;18.95;;;-0.20;69.00;;;;;;5045111;28;20119;-72
2021/01/07 08:20:46;;;;;;;26.17;18.20;;;-0.20;69.00;;;;;;5047049;28;20347;-73
2021/01/07 08:23:13;;;;;;;23.33;18.35;;;-0.10;69.10;;;;;;5046831;28;20293;-72
2021/01/07 08:25:41;;;;;;;23.98;17.92;;;-0.10;69.10;;;;;;5046645;28;20562;-73
2021/01/07 08:28:25;;;;;;;25.10;17.98;;;-0.10;69.10;;;;;;5046382;28;20090;-73
2021/01/07 08:30:56;;;;;;;27.48;19.40;;;-0.10;69.10;;;;;;5047409;28;20487;-75
2021/01/07 08:33:23;;;;;;;24.80;19.60;;;-0.10;69.00;;;;;;5046521;28;20437;-74
2021/01/07 08:35:59;;;;;;;26.83;18.83;;;0.00;69.20;;;;;;5046035;28;20071;-73
2021/01/07 08:38:30;;;;;;;29.52;21.00;;;-0.10;69.00;;;;;;5034539;28;20170;-73
2021/01/07 08:41:14;;;;;;;26.88;19.23;;;0.00;69.10;;;;;;5046462;28;20033;-74
2021/01/07 08:43:40;;;;;;;;;;;0.00;69.10;;;;;;5045314;28;20170;-74
2021/01/07 08:46:27;;;;;;;24.88;17.80;;;0.00;69.10;;;;;;5046311;28;19924;-73
2021/01/07 08:49:06;;;;;;;27.55;17.80;;;0.10;69.10;;;;;;5042538;28;20048;-73
2021/01/07 08:51:37;;;;;;;25.35;18.67;;;0.10;69.10;;;;;;5044976;28;20475;-71
2021/01/07 08:54:09;;;;;;;24.83;19.02;;;0.10;69.10;;;;;;5044558;28;20437;-72
2021/01/07 08:56:37;;;;;;;24.30;18.05;;;0.10;69.10;;;;;;5044906;28;20051;-73
2021/01/07 08:59:37;;;;;;;25.33;19.38;;;0.20;69.30;;;;;;5045124;28;20372;-72
2021/01/07 09:02:05;;;;;;;24.80;18.42;;;0.10;69.10;;;;;;5044835;28;20033;-74
2021/01/07 09:04:34;;;;;;;26.40;17.75;;;0.20;69.60;;;;;;5046030;28;20094;-73
2021/01/07 09:07:04;;;;;;;23.98;16.98;;;0.20;69.20;;;;;;5046437;28;20029;-72
2021/01/07 09:09:41;;;;;;;25.10;19.50;;;0.20;69.20;;;;;;5044393;28;20047;-76
2021/01/07 09:12:23;;;;;;;23.50;18.50;;;0.30;69.40;;;;;;5046067;28;20170;-70
2021/01/07 09:15:06;;;;;;;25.67;17.85;;;0.30;69.40;;;;;;5045930;28;20047;-73
2021/01/07 09:17:43;;;;;;;28.83;20.63;;;0.30;69.40;;;;;;5044291;28;20047;-73
2021/01/07 09:20:17;;;;;;;24.90;18.08;;;0.40;69.50;;;;;;5044519;28;20056;-74
2021/01/07 09:22:44;;;;;;;30.70;20.00;;;0.40;69.50;;;;;;5045794;28;20374;-73
2021/01/07 09:25:17;;;;;;;27.48;19.45;;;0.40;69.50;;;;;;5044385;28;20025;-74
2021/01/07 09:27:46;;;;;;;30.63;20.60;;;0.50;69.60;;;;;;5044333;28;20128;-75
2021/01/07 09:30:13;;;;;;;25.48;19.20;;;0.50;69.60;;;;;;5045310;28;20135;-74
2021/01/07 09:32:40;;;;;;;26.77;21.42;;;0.50;69.60;;;;;;5045865;28;20055;-75
2021/01/07 09:35:06;;;;;;;26.98;19.52;;;0.60;69.70;;;;;;5045278;28;20039;-75
2021/01/07 09:37:35;;;;;;;29.90;18.73;;;0.60;69.70;;;;;;5044927;28;20570;-74
2021/01/07 09:40:04;;;;;;;28.35;20.90;;;0.70;69.80;;;;;;5045749;28;20033;-74
2021/01/07 09:42:32;;;;;;;27.38;21.10;;;0.70;69.80;;;;;;5044763;28;20112;-73
2021/01/07 09:44:59;;;;;;;26.00;19.23;;;0.70;69.70;;;;;;5044003;28;20025;-74
2021/01/07 09:47:25;;;;;;;25.42;19.70;;;0.80;69.80;;;;;;5044672;28;20041;-73
2021/01/07 09:49:52;;;;;;;24.23;19.10;;;0.80;69.80;;;;;;5044612;28;20163;-75
2021/01/07 09:52:17;;;;;;;28.45;20.15;;;0.80;69.80;;;;;;5045371;28;20142;-71
2021/01/07 09:54:44;;;;;;;28.27;22.05;;;0.90;69.90;;;;;;5045447;28;20029;-71
2021/01/07 09:57:13;;;;;;;27.33;18.63;;;0.90;69.90;;;;;;5044752;28;20071;-73
2021/01/07 09:59:40;;;;;;;29.38;19.95;;;1.00;70.00;;;;;;5039913;28;20103;-72
2021/01/07 10:02:11;;;;;;;25.83;19.23;;;1.00;70.00;;;;;;5039982;28;20033;-72
2021/01/07 10:04:41;;;;;;;25.73;17.70;;;1.00;69.90;;;;;;5039080;28;20029;-74
2021/01/07 10:07:09;;;;;;;29.42;19.65;;;1.10;70.10;;;;;;5043813;28;20029;-71
2021/01/07 10:09:35;;;;;;;21.52;17.83;;;1.10;70.00;;;;;;5044238;28;20052;-72
2021/01/07 10:12:01;;;;;;;24.23;19.00;;;1.20;70.10;;;;;;5043897;28;20480;-74
2021/01/07 10:14:29;;;;;;;25.08;19.25;;;1.20;70.10;;;;;;5042096;28;20040;-73
2021/01/07 10:16:58;;;;;;;27.10;18.83;;;1.30;70.20;;;;;;5036655;28;20040;-73
2021/01/07 10:19:26;;;;;;;24.20;19.48;;;1.30;70.20;;;;;;5042597;28;20033;-74
2021/01/07 10:22:00;;;;;;;26.35;18.90;;;1.30;70.20;;;;;;5043830;28;20045;-74
2021/01/07 10:24:26;;;;;;;;;;;1.40;70.40;;;;;;5045345;28;20036;-73
2021/01/07 10:27:04;;;;;;;28.55;19.65;;;1.40;70.40;;;;;;5044719;28;19909;-73
2021/01/07 10:29:31;;;;;;;26.20;20.27;;;1.50;70.40;;;;;;5044179;28;20040;-73
2021/01/07 10:32:04;;;;;;;26.70;20.60;;;1.50;70.30;;;;;;5043283;28;20627;-73
2021/01/07 10:34:33;;;;;;;25.25;19.73;;;1.50;70.30;;;;;;5026299;28;20104;-76
2021/01/07 10:37:02;;;;;;;27.05;19.67;;;1.60;70.50;;;;;;5045092;28;20025;-74
2021/01/07 10:39:34;;;;;;;25.13;19.58;;;1.70;70.90;;;;;;5044277;28;20469;-74
2021/01/07 10:42:00;;;;;;;29.77;21.58;;;1.70;70.90;;;;;;5044924;28;20098;-74
2021/01/07 10:44:33;;;;;;;24.30;19.73;;;1.90;71.20;;;;;;5042681;28;20029;-73
2021/01/07 10:47:00;;;;;;;27.00;20.70;;;2.00;71.30;;;;;;5044273;28;20483;-73
2021/01/07 10:49:28;;;;;;;27.83;21.65;;;2.00;71.20;;;;;;5042250;28;20037;-74
2021/01/07 10:52:30;;;;;;;25.77;20.60;;;2.10;71.30;;;;;;5044541;28;20132;-75
2021/01/07 10:55:24;;;;;;;26.70;19.65;;;2.20;71.40;;;;;;5043973;28;20050;-73
2021/01/07 10:58:21;;;;;;;25.52;20.55;;;2.30;71.40;;;;;;5025945;28;20089;-73
2021/01/07 11:01:00;;;;;;;24.75;19.63;;;2.30;71.40;;;;;;5043668;28;20029;-72
2021/01/07 11:03:35;;;;;;;27.88;21.25;;;2.40;71.40;;;;;;5042744;28;20391;-73
2021/01/07 11:06:02;;;;;;;26.30;20.25;;;2.40;71.40;;;;;;5044003;28;20033;-73
2021/01/07 11:08:34;;;;;;;27.08;21.88;;;2.40;71.40;;;;;;5042716;28;20025;-74
2021/01/07 11:11:09;;;;;;;28.88;21.20;;;2.50;71.50;;;;;;5043820;28;20049;-74
2021/01/07 11:13:41;;;;;;;26.00;19.50;;;2.50;71.50;;;;;;5046789;28;20036;-74
2021/01/07 11:16:16;;;;;;;27.08;21.85;;;2.50;71.50;;;;;;5046403;28;20558;-73
2021/01/07 11:18:47;;;;;;;26.15;21.02;;;2.60;71.70;;;;;;5046214;28;20120;-74
2021/01/07 11:21:21;;;;;;;27.95;21.40;;;2.60;71.70;;;;;;5047876;28;20413;-74
2021/01/07 11:23:48;;;;;;;29.80;20.42;;;2.60;71.70;;;;;;5048210;28;20040;-75
2021/01/07 11:26:15;;;;;;;28.42;21.23;;;2.60;71.60;;;;;;5048574;28;20059;-75
2021/01/07 11:28:42;;;;;;;28.70;20.42;;;2.70;71.80;;;;;;5048349;28;20029;-75
2021/01/07 11:31:12;;;;;;;29.08;20.88;;;2.70;71.90;;;;;;5048724;28;20037;-76
2021/01/07 11:33:39;;;;;;;28.23;21.73;;;2.80;72.10;;;;;;5046515;28;20396;-74
2021/01/07 11:36:11;;;;;;;28.15;21.75;;;2.80;72.10;;;;;;5048381;28;20098;-73
2021/01/07 11:38:49;;;;;;;33.28;21.08;;;2.80;72.10;;;;;;5046401;28;20123;-83
2021/01/07 11:41:25;;;;;;;37.28;26.02;;;2.90;72.20;;;;;;5033083;28;20037;-81
2021/01/07 11:44:16;;;;;;;33.78;23.38;;;2.90;72.10;;;;;;5051532;28;20040;-81
2021/01/07 11:46:48;;;;;;;31.50;23.65;;;2.90;71.90;;;;;;5047073;28;20059;-82
2021/01/07 11:49:18;;;;;;;33.22;23.98;;;3.00;72.00;;;;;;5048076;28;20033;-81
2021/01/07 11:51:51;;;;;;;30.13;22.52;;;2.90;71.70;;;;;;5030672;28;20095;-81
2021/01/07 11:54:19;;;;;;;30.35;23.67;;;2.90;71.60;;;;;;5030537;28;20045;-81
2021/01/07 11:56:48;;;;;;;31.95;22.30;;;2.90;71.60;;;;;;5048024;28;20162;-80
2021/01/07 11:59:17;;;;;;;28.67;22.45;;;2.90;71.50;;;;;;5047864;28;20476;-78
2021/01/07 12:01:45;;;;;;;30.13;23.17;;;2.80;71.40;;;;;;5047954;28;20055;-74
2021/01/07 12:04:12;;;;;;;29.70;22.38;;;2.80;71.30;;;;;;5045978;28;20029;-75
2021/01/07 12:07:03;;;;;;;28.50;20.55;;;2.80;71.40;;;;;;5047370;28;20111;-73
2021/01/07 12:09:38;;;;;;;33.90;23.52;;;2.80;71.50;;;;;;5046914;28;20065;-74
2021/01/07 12:12:13;;;;;;;32.40;25.23;;;2.90;71.70;;;;;;5047615;28;20072;-76
2021/01/07 12:14:43;;;;;;;34.42;24.70;;;2.90;71.70;;;;;;5046839;28;20040;-75
2021/01/07 12:17:12;;;;;;;33.67;22.67;;;3.00;71.80;;;;;;5047100;28;20029;-80
2021/01/07 12:19:41;;;;;;;40.22;25.90;;;3.10;71.90;;;;;;5044483;28;20607;-76
2021/01/07 12:22:08;;;;;;;34.72;24.77;;;3.10;71.90;;;;;;5045890;28;20380;-73
2021/01/07 12:24:35;;;;;;;34.55;24.25;;;3.10;71.80;;;;;;5045820;28;20107;-74
2021/01/07 12:27:05;;;;;;;32.53;23.58;;;3.20;71.90;;;;;;5046379;28;20559;-73
2021/01/07 12:29:37;;;;;;;32.78;22.83;;;3.20;71.90;;;;;;5044718;28;20044;-75
2021/01/07 12:32:27;;;;;;;32.33;23.90;;;3.20;72.00;;;;;;5047035;28;20051;-72
2021/01/07 12:35:23;;;;;;;31.50;22.80;;;3.30;72.20;;;;;;5046757;28;20085;-72
2021/01/07 12:38:07;;;;;;;36.60;23.13;;;3.30;72.10;;;;;;5046277;28;20033;-72
2021/01/07 12:40:34;;;;;;;;;;;3.40;72.20;;;;;;5029109;28;20100;-72
2021/01/07 12:43:00;;;;;;;29.15;21.67;;;3.40;72.20;;;;;;5046920;28;19962;-74
2021/01/07 12:45:27;;;;;;;37.90;25.13;;;3.50;72.20;;;;;;5046785;28;20041;-73
2021/01/07 12:47:54;;;;;;;32.88;23.45;;;3.50;72.10;;;;;;5045612;28;20174;-72